Impacts TAF Board INFO
FOR SITUATIONAL AWARENESS. NOT TO BE USED FOR FLIGHT PLANNING PURPOSES.
IDs:

KLGA - New York/La Guardia, NY, US

Issued at 1335 UTC 16 Jan 2018
Updated at 1457 UTC 16 Jan 2018
Potential Impact None Slight Moderate High
Time<<17/03Z 17/04Z 17/05Z 17/06Z 17/07Z 17/08Z 17/09Z 17/10Z 17/11Z 17/12Z 17/13Z 17/14Z 17/15Z>>
Type PRVL
  [PRB30]  
PRVL
  [PRB30]  
PRVL PRVL PRVL PRVL PRVL PRVL PRVL PRVL PRVL PRVL PRVL
VIS >6
  [6]  
>6
  [6]  
5 5 5 2 2 2 2 2 2 1.5 1.5
CIG 15
  [15]  
15
  [15]  
10 10 10 8 8 8 8 8 8 8 8
Cover OVC
  [OVC]  
OVC
  [OVC]  
OVC OVC OVC OVC OVC OVC OVC OVC OVC OVC OVC
FltCat MVFR
  [MVFR]  
MVFR
  [MVFR]  
MVFR MVFR MVFR IFR IFR IFR IFR IFR IFR IFR IFR
WX --
  [-SN]  
--
  [-SN]  
-SN -SN -SN -RA -SN -RA -SN -RA -SN -RA -SN -RA -SN -RA -SN -SN BR -SN BR
WDir 80
[80]
80
[80]
60 60 60 40 40 40 40 40 40 340 340
WSpd 6
  [6]  
6
  [6]  
6 6 6 7 7 7 7 7 7 8 8
WGst --
  [--]  
--
  [--]  
-- -- -- -- -- -- -- -- -- -- --

Raw TAF
KLGA 161335Z 1614/1718 08006KT P6SM OVC010
  TEMPO 1614/1616 SCT015 BKN030
  FM161600 14006KT P6SM OVC015
  FM170200 08006KT P6SM OVC015
  PROB30 1702/1705 6SM -SN
  FM170500 06006KT 5SM -SN OVC010
  FM170800 04007KT 2SM -RASN OVC008
  FM171400 34008KT 1 1/2SM -SN BR OVC008


METAR Board
Radar Display
Forecast Discussion

FOR SITUATIONAL AWARENESS. NOT TO BE USED FOR FLIGHT PLANNING PURPOSES.